createdAt,value
2019-01-14T00:03:55.450Z,93919.34
2019-01-14T00:06:24.512Z,93914.20
2019-01-14T00:08:53.551Z,93914.77
2019-01-14T00:11:23.519Z,93910.56
2019-01-14T00:13:52.590Z,93894.56
2019-01-14T00:16:21.685Z,93920.59
2019-01-14T00:18:50.737Z,93928.07
2019-01-14T00:21:19.787Z,93903.98
2019-01-14T00:23:50.956Z,93915.66
2019-01-14T00:26:20.297Z,93911.47
2019-01-14T00:28:49.347Z,93904.84
2019-01-14T00:33:54.606Z,93913.89
2019-01-14T00:36:23.655Z,93921.81
2019-01-14T00:38:54.622Z,93926.23
2019-01-14T00:41:23.699Z,93920.78
2019-01-14T00:43:52.796Z,93938.02
2019-01-14T00:46:23.746Z,93940.63
2019-01-14T00:51:29.014Z,93951.20
2019-01-14T00:54:02.056Z,93937.95
2019-01-14T00:56:31.131Z,93973.59
2019-01-14T00:59:01.119Z,93977.21
2019-01-14T01:01:31.113Z,93979.82
2019-01-14T01:04:01.212Z,93979.70
2019-01-14T01:06:31.191Z,93982.95
2019-01-14T01:09:00.250Z,93984.95
2019-01-14T01:11:29.294Z,93991.09
2019-01-14T01:13:58.335Z,93994.45
2019-01-14T01:16:27.368Z,93986.97
2019-01-14T01:18:56.407Z,94000.95
2019-01-14T01:21:25.451Z,94006.11
2019-01-14T01:26:30.327Z,94018.62
2019-01-14T01:28:59.415Z,94029.30
2019-01-14T01:31:28.467Z,94038.09
2019-01-14T01:36:33.937Z,94060.74
2019-01-14T01:39:03.520Z,94055.41
2019-01-14T01:41:32.555Z,94060.23
2019-01-14T01:44:01.616Z,94068.05
2019-01-14T01:46:30.662Z,94075.12
2019-01-14T01:48:59.702Z,94078.95
2019-01-14T01:51:29.744Z,94078.60
2019-01-14T01:54:00.138Z,94086.47
2019-01-14T01:56:29.178Z,94091.02
2019-01-14T01:58:58.261Z,94084.15
2019-01-14T02:01:27.272Z,94084.77
2019-01-14T02:03:57.266Z,94079.90
2019-01-14T02:06:39.122Z,94089.77
2019-01-14T02:09:05.042Z,94097.77
2019-01-14T02:11:34.078Z,94089.70
2019-01-14T02:14:03.126Z,94104.61
2019-01-14T02:16:32.187Z,94110.70
2019-01-14T02:19:01.231Z,94105.14
2019-01-14T02:21:30.434Z,94108.80
2019-01-14T02:23:59.478Z,94117.55
2019-01-14T02:26:28.528Z,94111.77
2019-01-14T02:28:57.604Z,94119.84
2019-01-14T02:31:27.597Z,94117.42
2019-01-14T02:33:56.655Z,94116.59
2019-01-14T02:36:25.735Z,94115.08
2019-01-14T02:38:54.777Z,94122.59
2019-01-14T02:43:59.558Z,94128.61
2019-01-14T02:46:28.596Z,94124.98
2019-01-14T02:49:04.996Z,94129.48
2019-01-14T02:51:35.645Z,94120.72
2019-01-14T02:54:04.694Z,94124.88
2019-01-14T02:56:33.760Z,94132.41
2019-01-14T02:59:02.795Z,94130.06
2019-01-14T03:01:32.824Z,94134.25
2019-01-14T03:04:01.877Z,94136.98
2019-01-14T03:06:30.894Z,94139.81
2019-01-14T03:08:59.966Z,94148.11
2019-01-14T03:14:08.919Z,94149.19
2019-01-14T03:16:37.974Z,94146.38
2019-01-14T03:21:43.692Z,94157.58
2019-01-14T03:24:12.773Z,94162.30
2019-01-14T03:26:41.807Z,94171.20
2019-01-14T03:31:49.540Z,94185.94
2019-01-14T03:34:19.517Z,94188.70
2019-01-14T03:36:48.561Z,94188.67
2019-01-14T03:39:18.661Z,94192.16
2019-01-14T03:41:47.693Z,94193.97
2019-01-14T03:44:19.028Z,94199.38
2019-01-14T03:46:48.081Z,94200.09
2019-01-14T03:49:17.159Z,94205.97
2019-01-14T03:51:46.203Z,94206.17
2019-01-14T03:54:15.254Z,94202.47
2019-01-14T03:56:44.301Z,94200.66
2019-01-14T03:59:13.384Z,94213.93
2019-01-14T04:01:42.442Z,94216.16
2019-01-14T04:04:12.595Z,94218.18
2019-01-14T04:06:41.672Z,94216.55
2019-01-14T04:11:46.960Z,94223.06
2019-01-14T04:14:16.716Z,94224.72
2019-01-14T04:16:45.763Z,94224.64
2019-01-14T04:19:15.170Z,94232.27
2019-01-14T04:21:44.238Z,94232.10
2019-01-14T04:26:52.095Z,94231.42
2019-01-14T04:29:21.140Z,94234.39
2019-01-14T04:31:50.198Z,94236.53
2019-01-14T04:34:19.245Z,94238.16
2019-01-14T04:36:48.279Z,94243.22
2019-01-14T04:39:17.355Z,94250.52
2019-01-14T04:41:46.399Z,94255.98
2019-01-14T04:44:15.456Z,94253.64
2019-01-14T04:46:44.499Z,94255.05
2019-01-14T04:49:13.543Z,94267.63
2019-01-14T04:51:42.633Z,94264.42
2019-01-14T04:54:11.700Z,94264.03
2019-01-14T04:56:40.746Z,94267.46
2019-01-14T04:59:09.842Z,94273.46
2019-01-14T05:01:38.889Z,94274.05
2019-01-14T05:04:07.970Z,94277.14
2019-01-14T05:06:37.022Z,94282.27
2019-01-14T05:09:06.060Z,94291.34
2019-01-14T05:11:35.140Z,94300.25
2019-01-14T05:14:04.184Z,94298.39
2019-01-14T05:16:33.266Z,94306.88
2019-01-14T05:19:02.306Z,94313.06
2019-01-14T05:21:31.380Z,94314.84
2019-01-14T05:24:01.417Z,94320.41
2019-01-14T05:26:30.465Z,94317.47
2019-01-14T05:28:59.487Z,94314.84
2019-01-14T05:31:29.515Z,94317.41
2019-01-14T05:33:59.531Z,94322.55
2019-01-14T05:36:28.616Z,94333.66
2019-01-14T05:38:57.748Z,94341.40
2019-01-14T05:41:26.800Z,94340.20
2019-01-14T05:43:55.837Z,94330.75
2019-01-14T05:46:24.912Z,94345.14
2019-01-14T05:48:53.963Z,94340.62
2019-01-14T05:51:23.032Z,94332.52
2019-01-14T05:53:52.078Z,94327.58
2019-01-14T05:56:36.118Z,94344.28
2019-01-14T05:59:22.046Z,94350.45
2019-01-14T06:04:28.627Z,94358.77
2019-01-14T06:06:57.667Z,94359.10
2019-01-14T06:09:26.760Z,94375.28
2019-01-14T06:11:55.819Z,94368.98
2019-01-14T06:17:02.573Z,94371.40
2019-01-14T06:19:31.642Z,94390.56
2019-01-14T06:22:02.067Z,94385.44
2019-01-14T06:24:32.498Z,94381.59
2019-01-14T06:27:01.988Z,94388.39
2019-01-14T06:29:31.095Z,94387.59
2019-01-14T06:32:01.715Z,94383.61
2019-01-14T06:34:30.775Z,94386.34
2019-01-14T06:39:35.000Z,94387.02
2019-01-14T06:42:07.501Z,94387.44
2019-01-14T06:44:33.091Z,94401.01
2019-01-14T06:47:02.145Z,94401.62
2019-01-14T06:49:31.200Z,94408.17
2019-01-14T06:52:00.271Z,94412.09
2019-01-14T06:54:29.544Z,94427.16
2019-01-14T06:56:58.356Z,94428.37
2019-01-14T06:59:27.411Z,94426.73
2019-01-14T07:01:56.458Z,94431.72
2019-01-14T07:04:25.564Z,94434.55
2019-01-14T07:06:54.609Z,94438.17
2019-01-14T07:09:23.976Z,94438.78
2019-01-14T07:11:52.996Z,94449.20
2019-01-14T07:17:01.281Z,94456.23
2019-01-14T07:19:30.352Z,94465.14
2019-01-14T07:21:59.375Z,94467.71
2019-01-14T07:24:28.436Z,94469.86
2019-01-14T07:26:57.475Z,94474.33
2019-01-14T07:29:26.534Z,94484.68
2019-01-14T07:31:55.580Z,94482.75
2019-01-14T07:34:24.640Z,94487.73
2019-01-14T07:36:53.695Z,94490.25
2019-01-14T07:39:22.748Z,94485.33
2019-01-14T07:41:51.788Z,94489.12
2019-01-14T07:44:20.826Z,94485.02
2019-01-14T07:46:49.891Z,94502.83
2019-01-14T07:49:25.580Z,94504.79
2019-01-14T07:51:54.627Z,94507.36
2019-01-14T07:54:23.674Z,94512.41
2019-01-14T07:56:52.799Z,94514.52
2019-01-14T07:59:21.855Z,94518.66
2019-01-14T08:01:51.397Z,94527.36
2019-01-14T08:04:20.452Z,94522.36
2019-01-14T08:06:49.542Z,94522.20
2019-01-14T08:09:18.593Z,94533.32
2019-01-14T08:11:47.627Z,94532.38
2019-01-14T08:14:16.702Z,94539.64
2019-01-14T08:16:45.725Z,94537.98
2019-01-14T08:19:14.789Z,94540.30
2019-01-14T08:21:44.864Z,94544.30
2019-01-14T08:24:13.950Z,94544.06
2019-01-14T08:26:42.984Z,94547.33
2019-01-14T08:29:12.106Z,94547.38
2019-01-14T08:31:41.249Z,94546.38
2019-01-14T08:34:10.272Z,94553.05
2019-01-14T08:36:39.316Z,94556.16
2019-01-14T08:39:08.372Z,94560.48
2019-01-14T08:41:38.441Z,94558.77
2019-01-14T08:44:07.460Z,94563.60
2019-01-14T08:46:36.506Z,94563.17
2019-01-14T08:54:18.299Z,94573.63
2019-01-14T08:56:47.334Z,94581.58
2019-01-14T08:59:16.455Z,94586.14
2019-01-14T09:04:22.713Z,94601.73
2019-01-14T09:06:50.746Z,94612.23
2019-01-14T09:09:19.795Z,94611.23
2019-01-14T09:11:48.843Z,94606.47
2019-01-14T09:14:17.896Z,94610.27
2019-01-14T09:16:46.951Z,94613.70
2019-01-14T09:19:16.768Z,94605.26
2019-01-14T09:21:45.855Z,94607.70
2019-01-14T09:24:14.917Z,94602.38
2019-01-14T09:26:45.042Z,94611.98
2019-01-14T09:29:12.992Z,94614.22
2019-01-14T09:31:42.066Z,94623.91
2019-01-14T09:34:11.110Z,94632.01
2019-01-14T09:36:40.157Z,94626.06
2019-01-14T09:39:09.204Z,94625.95
2019-01-14T09:41:38.242Z,94626.59
2019-01-14T09:44:07.304Z,94626.53
2019-01-14T09:49:15.000Z,94634.18
2019-01-14T09:51:44.063Z,94634.34
2019-01-14T09:54:13.151Z,94633.81
2019-01-14T09:56:42.214Z,94636.70
2019-01-14T09:59:11.266Z,94627.06
2019-01-14T10:01:40.322Z,94628.67
2019-01-14T10:04:09.362Z,94619.63
2019-01-14T10:09:14.217Z,94624.33
2019-01-14T10:11:43.235Z,94621.12
2019-01-14T10:14:13.233Z,94631.43
2019-01-14T10:16:42.288Z,94632.67
2019-01-14T10:19:11.323Z,94628.34
2019-01-14T10:21:40.382Z,94620.27
2019-01-14T10:24:09.412Z,94612.27
2019-01-14T10:26:38.499Z,94609.66
2019-01-14T10:29:07.545Z,94613.28
2019-01-14T10:31:36.625Z,94608.98
2019-01-14T10:34:05.784Z,94609.63
2019-01-14T10:36:34.847Z,94608.08
2019-01-14T10:39:03.871Z,94611.11
2019-01-14T10:41:33.006Z,94593.10
2019-01-14T10:44:02.027Z,94603.02
2019-01-14T10:46:31.077Z,94604.20
2019-01-14T10:49:00.128Z,94602.89
2019-01-14T10:51:29.171Z,94606.55
2019-01-14T10:53:58.211Z,94612.66
2019-01-14T10:56:27.247Z,94590.03
2019-01-14T10:59:05.158Z,94596.02
2019-01-14T11:01:34.182Z,94603.69
2019-01-14T11:04:03.246Z,94597.89
2019-01-14T11:06:32.469Z,94590.81
2019-01-14T11:09:05.799Z,94599.72
2019-01-14T11:11:30.554Z,94588.16
2019-01-14T11:16:38.316Z,94596.91
2019-01-14T11:19:07.332Z,94590.55
2019-01-14T11:21:36.384Z,94597.50
2019-01-14T11:24:05.432Z,94595.44
2019-01-14T11:26:34.500Z,94596.13
2019-01-14T11:29:03.543Z,94599.73
2019-01-14T11:31:32.601Z,94591.61
2019-01-14T11:36:37.394Z,94584.48
2019-01-14T11:39:06.436Z,94608.09
2019-01-14T11:41:35.523Z,94580.97
2019-01-14T11:44:04.597Z,94571.66
2019-01-14T11:46:33.650Z,94563.95
2019-01-14T11:49:02.723Z,94576.13
2019-01-14T11:51:31.761Z,94555.28
2019-01-14T11:54:00.798Z,94564.38
2019-01-14T11:59:08.621Z,94566.80
2019-01-14T12:01:37.673Z,94570.88
2019-01-14T12:04:15.610Z,94568.36
2019-01-14T12:06:44.815Z,94544.52
2019-01-14T12:09:13.854Z,94556.19
2019-01-14T12:11:43.139Z,94561.16
2019-01-14T12:14:12.338Z,94560.89
2019-01-14T12:16:41.413Z,94563.53
2019-01-14T12:19:10.442Z,94553.74
2019-01-14T12:21:39.482Z,94561.20
2019-01-14T12:24:08.539Z,94547.66
2019-01-14T12:26:37.567Z,94584.42
2019-01-14T12:29:06.621Z,94579.24
2019-01-14T12:31:35.892Z,94584.66
2019-01-14T12:34:04.934Z,94576.63
2019-01-14T12:36:33.979Z,94565.56
2019-01-14T12:39:03.022Z,94561.71
2019-01-14T12:46:43.875Z,94585.64
2019-01-14T12:49:12.895Z,94575.35
2019-01-14T12:51:41.965Z,94581.56
2019-01-14T12:54:10.979Z,94584.16
2019-01-14T12:56:40.035Z,94588.92
2019-01-14T13:01:44.264Z,94593.22
2019-01-14T13:04:13.319Z,94578.11
2019-01-14T13:06:42.424Z,94588.08
2019-01-14T13:09:11.469Z,94570.22
2019-01-14T13:11:40.519Z,94579.28
2019-01-14T13:14:09.562Z,94570.73
2019-01-14T13:16:38.612Z,94573.97
2019-01-14T13:19:07.664Z,94572.47
2019-01-14T13:21:36.766Z,94570.02
2019-01-14T13:24:05.822Z,94592.22
2019-01-14T13:26:34.865Z,94581.70
2019-01-14T13:29:03.967Z,94587.61
2019-01-14T13:31:33.011Z,94603.59
2019-01-14T13:34:10.384Z,94597.83
2019-01-14T13:36:39.462Z,94602.95
2019-01-14T13:39:08.490Z,94612.63
2019-01-14T13:41:37.589Z,94622.89
2019-01-14T13:44:06.644Z,94602.80
2019-01-14T13:46:35.690Z,94599.86
2019-01-14T13:49:05.809Z,94602.88
2019-01-14T13:51:34.849Z,94607.17
2019-01-14T13:54:03.944Z,94610.02
2019-01-14T13:56:32.972Z,94608.83
2019-01-14T13:59:02.026Z,94615.00
2019-01-14T14:01:31.459Z,94615.17
2019-01-14T14:04:00.536Z,94624.04
2019-01-14T14:06:29.599Z,94642.48
2019-01-14T14:08:58.655Z,94639.22
2019-01-14T14:11:27.731Z,94644.15
2019-01-14T14:13:56.775Z,94661.33
2019-01-14T14:16:36.721Z,94688.55
2019-01-14T14:19:05.875Z,94700.80
2019-01-14T14:21:34.976Z,94707.14
2019-01-14T14:24:03.974Z,94719.95
2019-01-14T14:26:33.815Z,94738.81
2019-01-14T14:29:02.871Z,94745.47
2019-01-14T14:31:31.990Z,94742.89
2019-01-14T14:34:01.029Z,94736.59
2019-01-14T14:36:30.495Z,94739.16
2019-01-14T14:38:59.566Z,94738.38
2019-01-14T14:41:28.607Z,94746.92
2019-01-14T14:43:57.654Z,94746.53
2019-01-14T14:46:26.733Z,94759.13
2019-01-14T14:48:55.742Z,94779.22
2019-01-14T14:51:24.840Z,94779.83
2019-01-14T14:53:57.999Z,94784.38
2019-01-14T14:56:31.220Z,94783.11
2019-01-14T14:59:05.640Z,94784.89
2019-01-14T15:01:39.135Z,94774.72
2019-01-14T15:04:13.240Z,94778.63
2019-01-14T15:06:47.014Z,94775.31
2019-01-14T15:11:59.314Z,94780.45
2019-01-14T15:14:31.662Z,94797.88
2019-01-14T15:17:00.701Z,94802.37
2019-01-14T15:19:29.742Z,94805.01
2019-01-14T15:21:58.804Z,94815.41
2019-01-14T15:24:27.902Z,94817.65
2019-01-14T15:29:32.677Z,94830.48
2019-01-14T15:32:01.786Z,94832.17
2019-01-14T15:34:30.862Z,94833.97
2019-01-14T15:36:59.923Z,94837.45
2019-01-14T15:39:28.965Z,94843.34
2019-01-14T15:41:58.059Z,94847.77
2019-01-14T15:44:27.096Z,94864.27
2019-01-14T15:46:56.212Z,94868.36
2019-01-14T15:49:26.197Z,94874.06
2019-01-14T15:51:55.287Z,94875.95
2019-01-14T15:54:24.386Z,94881.50
2019-01-14T15:56:54.406Z,94908.48
2019-01-14T15:59:23.459Z,94908.66
2019-01-14T16:01:52.583Z,94919.42
2019-01-14T16:04:21.642Z,94921.16
2019-01-14T16:06:50.735Z,94926.30
2019-01-14T16:09:19.795Z,94922.15
2019-01-14T16:11:48.835Z,94931.22
2019-01-14T16:14:17.888Z,94928.32
2019-01-14T16:16:46.932Z,94930.64
2019-01-14T16:19:16.023Z,94938.05
2019-01-14T16:21:45.158Z,94949.50
2019-01-14T16:24:14.243Z,94955.82
2019-01-14T16:26:43.289Z,94964.72
2019-01-14T16:29:12.361Z,94968.19
2019-01-14T16:31:41.393Z,94978.87
2019-01-14T16:34:10.496Z,94980.06
2019-01-14T16:36:39.581Z,94981.59
2019-01-14T16:39:08.730Z,94990.34
2019-01-14T16:41:37.772Z,95002.59
2019-01-14T16:44:06.818Z,95005.65
2019-01-14T16:46:35.879Z,95009.94
2019-01-14T16:49:04.953Z,95018.20
2019-01-14T16:51:34.007Z,95028.78
2019-01-14T16:54:03.071Z,95044.62
2019-01-14T16:56:32.187Z,95043.22
2019-01-14T16:59:01.239Z,95045.97
2019-01-14T17:01:30.352Z,95050.15
2019-01-14T17:03:59.429Z,95053.09
2019-01-14T17:06:28.522Z,95063.66
2019-01-14T17:09:07.321Z,95082.59
2019-01-14T17:11:36.772Z,95084.82
2019-01-14T17:16:41.575Z,95086.33
2019-01-14T17:19:10.667Z,95092.13
2019-01-14T17:21:39.756Z,95101.84
2019-01-14T17:24:08.800Z,95101.95
2019-01-14T17:26:37.860Z,95108.08
2019-01-14T17:29:06.910Z,95115.52
2019-01-14T17:31:35.959Z,95109.29
2019-01-14T17:34:08.733Z,95117.61
2019-01-14T17:36:38.737Z,95123.30
2019-01-14T17:39:07.787Z,95121.83
2019-01-14T17:41:37.771Z,95126.47
2019-01-14T17:44:06.815Z,95137.55
2019-01-14T17:46:35.858Z,95127.44
2019-01-14T17:49:05.032Z,95127.17
2019-01-14T17:51:40.105Z,95133.59
2019-01-14T17:56:48.922Z,95139.93
2019-01-14T17:59:17.938Z,95143.69
2019-01-14T18:01:47.012Z,95145.31
2019-01-14T18:04:16.296Z,95151.05
2019-01-14T18:06:45.407Z,95160.25
2019-01-14T18:09:14.433Z,95169.37
2019-01-14T18:11:43.490Z,95173.98
2019-01-14T18:14:12.558Z,95179.04
2019-01-14T18:16:42.384Z,95178.25
2019-01-14T18:19:11.844Z,95190.11
2019-01-14T18:21:40.919Z,95197.95
2019-01-14T18:24:10.080Z,95193.00
2019-01-14T18:26:39.246Z,95198.41
2019-01-14T18:31:44.937Z,95214.39
2019-01-14T18:34:20.849Z,95220.28
2019-01-14T18:36:49.999Z,95219.02
2019-01-14T18:39:22.805Z,95228.21
2019-01-14T18:41:51.889Z,95232.94
2019-01-14T18:44:21.146Z,95233.58
2019-01-14T18:46:50.183Z,95234.91
2019-01-14T18:49:19.273Z,95239.75
2019-01-14T18:51:48.327Z,95236.05
2019-01-14T18:54:17.381Z,95243.23
2019-01-14T18:56:46.434Z,95235.79
2019-01-14T18:59:15.482Z,95235.46
2019-01-14T19:01:44.536Z,95239.20
2019-01-14T19:08:13.502Z,95248.26
2019-01-14T19:10:46.333Z,95256.91
2019-01-14T19:13:19.396Z,95256.17
2019-01-14T19:15:49.596Z,95244.76
2019-01-14T19:20:56.348Z,95251.32
2019-01-14T19:23:37.814Z,95249.84
2019-01-14T19:28:46.173Z,95254.28
2019-01-14T19:31:15.238Z,95264.91
2019-01-14T19:33:45.197Z,95259.23
2019-01-14T19:36:15.150Z,95263.73
2019-01-14T19:38:44.206Z,95261.91
2019-01-14T19:41:29.031Z,95263.27
2019-01-14T19:46:34.774Z,95271.94
2019-01-14T19:49:06.824Z,95272.93
2019-01-14T19:51:35.858Z,95287.45
2019-01-14T19:54:29.765Z,95295.33
2019-01-14T19:56:59.771Z,95298.52
2019-01-14T19:59:35.625Z,95289.34
2019-01-14T20:02:05.129Z,95300.02
2019-01-14T20:04:34.273Z,95301.50
2019-01-14T20:07:10.244Z,95304.35
2019-01-14T20:09:32.493Z,95306.09
2019-01-14T20:12:01.563Z,95304.78
2019-01-14T20:14:30.632Z,95304.97
2019-01-14T20:17:00.684Z,95304.53
2019-01-14T20:19:29.748Z,95310.57
2019-01-14T20:22:19.835Z,95313.81
2019-01-14T20:25:19.561Z,95319.40
2019-01-14T20:27:52.245Z,95318.74
2019-01-14T20:30:21.305Z,95320.06
2019-01-14T20:35:27.596Z,95318.24
2019-01-14T20:38:20.506Z,95316.27
2019-01-14T20:40:49.588Z,95325.08
2019-01-14T20:43:21.840Z,95324.43
2019-01-14T20:45:50.895Z,95326.47
2019-01-14T20:48:42.619Z,95320.91
2019-01-14T20:53:48.344Z,95313.97
2019-01-14T20:56:21.800Z,95314.27
2019-01-14T20:58:50.909Z,95314.39
2019-01-14T21:03:59.260Z,95318.39
2019-01-14T21:06:42.137Z,95322.38
2019-01-14T21:09:10.969Z,95328.89
2019-01-14T21:12:01.837Z,95327.17
2019-01-14T21:15:05.863Z,95334.69
2019-01-14T21:17:45.619Z,95340.15
2019-01-14T21:20:17.262Z,95340.72
2019-01-14T21:22:53.675Z,95347.52
2019-01-14T21:25:22.744Z,95348.52
2019-01-14T21:27:53.703Z,95349.48
2019-01-14T21:33:03.335Z,95358.48
2019-01-14T21:35:32.386Z,95360.17
2019-01-14T21:38:01.456Z,95362.78
2019-01-14T21:40:30.514Z,95359.70
2019-01-14T21:42:59.798Z,95381.70
2019-01-14T21:45:28.839Z,95384.28
2019-01-14T21:48:02.335Z,95387.34
2019-01-14T21:50:31.743Z,95389.48
2019-01-14T21:53:11.527Z,95390.68
2019-01-14T21:55:40.592Z,95397.31
2019-01-14T21:58:13.958Z,95405.98
2019-01-14T22:01:02.533Z,95416.41
2019-01-14T22:03:31.584Z,95419.58
2019-01-14T22:08:37.477Z,95421.28
2019-01-14T22:13:45.261Z,95425.73
2019-01-14T22:16:21.606Z,95438.73
2019-01-14T22:21:29.399Z,95447.16
2019-01-14T22:24:02.296Z,95455.67
2019-01-14T22:26:32.298Z,95459.48
2019-01-14T22:29:06.847Z,95459.47
2019-01-14T22:31:37.160Z,95461.73
2019-01-14T22:34:18.364Z,95463.13
2019-01-14T22:37:08.358Z,95467.91
2019-01-14T22:39:39.416Z,95470.94
2019-01-14T22:44:44.266Z,95473.06
2019-01-14T22:47:20.694Z,95477.51
2019-01-14T22:50:19.307Z,95475.98
2019-01-14T22:53:20.156Z,95479.88
2019-01-14T22:56:07.525Z,95481.94
2019-01-14T22:58:36.651Z,95490.54
2019-01-14T23:01:05.712Z,95499.16
2019-01-14T23:03:34.767Z,95500.27
2019-01-14T23:06:15.278Z,95496.98
2019-01-14T23:09:08.066Z,95506.84
2019-01-14T23:11:37.307Z,95507.80
2019-01-14T23:14:23.568Z,95514.70
2019-01-14T23:17:00.707Z,95515.74
2019-01-14T23:19:29.813Z,95513.09
2019-01-14T23:21:59.793Z,95516.08
2019-01-14T23:24:28.859Z,95518.83
2019-01-14T23:26:58.052Z,95526.22
2019-01-14T23:29:27.535Z,95527.33
2019-01-14T23:31:56.604Z,95528.75
2019-01-14T23:34:25.684Z,95543.13
2019-01-14T23:37:11.954Z,95547.03
2019-01-14T23:39:44.952Z,95552.34
2019-01-14T23:42:15.125Z,95548.52
2019-01-14T23:47:44.305Z,95547.57
2019-01-14T23:50:15.541Z,95550.68
2019-01-14T23:53:01.788Z,95553.50
2019-01-14T23:55:31.070Z,95557.85
2019-01-14T23:58:15.542Z,95563.30
